ADDS METAR Data

Data at: 0534 UTC 19 Jan 2018

METAR for:KWST (Westerly State Arpt, RI, US)
Text:KWST 190453Z AUTO VRB04KT 10SM CLR M04/M09 A3000 RMK AO2 SLP158 T10441094 400171067
Temperature: -4.4°C ( 24°F)
Dewpoint: -9.4°C ( 15°F) [RH = 68%]
Pressure (altimeter):30.00 inches Hg (1016.0 mb) [Sea level pressure: 1015.8 mb]
Winds:variable direction winds at 5 MPH (4 knots; 2.1 m/s)
Visibility:10 or more sm (16+ km)
Ceiling:at least 12,000 feet AGL
Clouds:sky clear below 12,000 feet AGL
QC Flag:automated observation with no human augmentation